Time;durP1;ratioP1;P1;durP2;ratioP2;P2;SDS_P1;SDS_P2;PMS_P1;PMS_P2;Temp;Humidity;BMP_temperature;BMP_pressure;BME280_temperature;BME280_humidity;BME280_pressure;Samples;Min_cycle;Max_cycle;Signal;HPM_P1;HPM_P2
2023/05/07 00:02:22;;;;;;;4.30;3.03;;;;;;;15.90;64.55;99127.00;5026151;28;20045;-75
2023/05/07 00:04:49;;;;;;;5.13;3.47;;;;;;;15.89;65.02;99122.63;5024771;28;20049;-75
2023/05/07 00:07:16;;;;;;;3.50;2.92;;;;;;;15.85;64.79;99123.84;5025684;28;20069;-75
2023/05/07 00:09:43;;;;;;;3.83;2.95;;;;;;;15.47;65.05;99077.94;5026059;28;20061;-75
2023/05/07 00:12:09;;;;;;;5.53;2.90;;;;;;;15.05;65.12;99000.28;5026000;28;20308;-75
2023/05/07 00:14:36;;;;;;;6.32;3.50;;;;;;;15.77;65.13;99120.09;5025986;28;20068;-75
2023/05/07 00:17:05;;;;;;;4.32;3.38;;;;;;;15.73;65.37;99123.97;5025680;28;20046;-75
2023/05/07 00:19:32;;;;;;;3.67;2.80;;;;;;;15.42;65.16;99077.44;5024402;28;20206;-76
2023/05/07 00:21:59;;;;;;;4.30;3.00;;;;;;;15.69;65.56;99134.91;5024608;28;20068;-75
2023/05/07 00:24:26;;;;;;;4.78;3.03;;;;;;;15.70;65.30;99130.41;5025910;28;20063;-76
2023/05/07 00:26:53;;;;;;;5.28;2.97;;;;;;;15.67;65.16;99130.66;5024197;28;20124;-76
2023/05/07 00:29:21;;;;;;;4.88;3.28;;;;;;;15.63;65.27;99132.69;5024260;28;20049;-76
2023/05/07 00:31:47;;;;;;;4.18;3.45;;;;;;;15.62;65.46;99130.13;5025087;28;20041;-76
2023/05/07 00:34:16;;;;;;;4.07;2.95;;;;;;;15.47;65.47;99110.84;5024427;28;20061;-76
2023/05/07 00:36:42;;;;;;;4.53;3.35;;;;;;;15.57;65.78;99132.31;5025320;28;20301;-76
2023/05/07 00:39:09;;;;;;;5.05;3.53;;;;;;;15.55;65.24;99128.91;5025797;28;20309;-76
2023/05/07 00:41:36;;;;;;;4.75;4.03;;;;;;;15.56;65.45;99128.81;5025797;28;20293;-76
2023/05/07 00:44:03;;;;;;;5.00;3.85;;;;;;;15.53;65.86;99125.53;5025277;28;20109;-76
2023/05/07 00:46:31;;;;;;;4.55;3.58;;;;;;;15.49;65.98;99122.25;5025218;28;20309;-76
2023/05/07 00:49:00;;;;;;;5.28;4.05;;;;;;;15.48;65.87;99131.22;5025735;28;20274;-76
2023/05/07 00:51:29;;;;;;;4.97;3.50;;;;;;;15.46;65.88;99118.97;5025706;28;20093;-76
2023/05/07 00:53:56;;;;;;;4.72;3.45;;;;;;;15.44;65.63;99124.44;5025434;28;20038;-76
2023/05/07 00:56:25;;;;;;;8.00;4.07;;;;;;;15.26;66.06;99101.84;5025044;28;20108;-76
2023/05/07 00:58:52;;;;;;;5.20;3.65;;;;;;;15.40;65.40;99139.00;5025319;28;20053;-76
2023/05/07 01:01:19;;;;;;;5.40;3.40;;;;;;;15.39;65.68;99127.47;5008888;28;20117;-75
2023/05/07 01:03:46;;;;;;;3.90;3.10;;;;;;;15.38;65.31;99117.75;5024160;28;20045;-75
2023/05/07 01:06:16;;;;;;;4.90;3.75;;;;;;;15.34;65.13;99124.31;5027704;28;20092;-76
2023/05/07 01:08:45;;;;;;;4.10;2.97;;;;;;;14.78;65.15;99034.47;5028566;28;20278;-76
2023/05/07 01:11:13;;;;;;;4.43;2.88;;;;;;;15.29;65.22;99121.13;5028770;28;20053;-76
2023/05/07 01:13:40;;;;;;;4.07;2.38;;;;;;;14.34;65.19;98970.19;5028991;28;20041;-77
2023/05/07 01:16:07;;;;;;;3.42;2.30;;;;;;;15.26;64.73;99128.53;5028476;28;20202;-76
2023/05/07 01:18:35;;;;;;;3.22;2.53;;;;;;;14.87;64.68;99065.75;5027464;28;20045;-75
2023/05/07 01:21:05;;;;;;;3.58;2.40;;;;;;;14.95;64.88;99074.03;5028362;28;20080;-75
2023/05/07 01:23:35;;;;;;;3.30;2.38;;;;;;;15.18;64.60;99125.63;5027344;28;20037;-76
2023/05/07 01:26:02;;;;;;;4.13;2.42;;;;;;;15.14;64.72;99129.50;5028791;28;20050;-76
2023/05/07 01:28:28;;;;;;;2.65;1.92;;;;;;;15.11;64.73;99122.56;5028485;28;20084;-76
2023/05/07 01:31:01;;;;;;;3.35;2.17;;;;;;;15.11;64.73;99133.25;5028143;28;20046;-74
2023/05/07 01:33:32;;;;;;;3.53;2.15;;;;;;;13.75;64.53;98910.78;5028027;28;20050;-75
2023/05/07 01:36:02;;;;;;;3.13;1.98;;;;;;;15.08;64.44;99136.16;5028642;28;20048;-75
2023/05/07 01:38:29;;;;;;;3.17;2.22;;;;;;;14.94;64.38;99112.34;5027048;28;20045;-75
2023/05/07 01:40:59;;;;;;;3.65;1.90;;;;;;;15.02;64.76;99142.81;5028473;28;20056;-76
2023/05/07 01:43:26;;;;;;;3.40;1.80;;;;;;;14.99;64.52;99135.03;5027860;28;20045;-75
2023/05/07 01:45:53;;;;;;;2.97;2.00;;;;;;;14.72;64.52;99102.47;5028198;28;20201;-75
2023/05/07 01:48:20;;;;;;;2.60;1.80;;;;;;;14.78;64.44;99115.34;5028347;28;20041;-75
2023/05/07 01:50:48;;;;;;;2.70;1.92;;;;;;;14.90;64.75;99154.44;5026935;28;20037;-74
2023/05/07 01:53:14;;;;;;;3.55;2.75;;;;;;;14.91;64.73;99142.78;5026881;28;20038;-74
2023/05/07 01:55:41;;;;;;;3.50;2.10;;;;;;;14.77;64.81;99118.13;5027832;28;20045;-74
2023/05/07 01:58:10;;;;;;;2.70;2.08;;;;;;;14.91;64.77;99142.78;5026692;28;20040;-72
2023/05/07 02:00:37;;;;;;;5.25;3.92;;;;;;;14.75;64.86;99120.91;5027907;28;20112;-72
2023/05/07 02:03:04;;;;;;;4.13;3.45;;;;;;;14.51;65.01;99104.03;5027796;28;20041;-72
2023/05/07 02:05:31;;;;;;;3.72;2.55;;;;;;;14.70;64.77;99120.41;5027430;28;20042;-73
2023/05/07 02:07:57;;;;;;;3.00;2.20;;;;;;;14.71;64.78;99124.78;5026614;28;20364;-74
2023/05/07 02:10:25;;;;;;;4.20;2.28;;;;;;;14.83;64.96;99141.66;5027659;28;20046;-74
2023/05/07 02:12:51;;;;;;;3.10;2.25;;;;;;;14.81;64.83;99135.59;5027713;28;20038;-75
2023/05/07 02:15:19;;;;;;;2.92;2.10;;;;;;;14.81;64.72;99154.28;5027526;28;20104;-75
2023/05/07 02:17:59;;;;;;;4.32;2.10;;;;;;;14.80;65.39;99166.75;5027157;28;20096;-75
2023/05/07 02:20:26;;;;;;;3.05;2.10;;;;;;;14.75;64.81;99152.91;5026242;28;20100;-75
2023/05/07 02:22:53;;;;;;;3.80;2.22;;;;;;;14.53;64.74;99104.75;5026631;28;20042;-75
2023/05/07 02:25:20;;;;;;;3.30;2.53;;;;;;;14.72;65.13;99142.47;5026303;28;20351;-75
2023/05/07 02:27:47;;;;;;;4.40;2.22;;;;;;;14.71;65.34;99146.13;5027359;28;20046;-75
2023/05/07 02:30:14;;;;;;;3.40;2.33;;;;;;;14.70;65.30;99145.25;5027600;28;20060;-75
2023/05/07 02:32:42;;;;;;;3.10;2.33;;;;;;;14.70;64.97;99150.59;5026153;28;20038;-75
2023/05/07 02:35:09;;;;;;;3.00;2.20;;;;;;;14.69;65.18;99150.72;5027006;28;20045;-75
2023/05/07 02:37:36;;;;;;;3.63;2.55;;;;;;;14.69;65.02;99146.22;5026899;28;20104;-75
2023/05/07 02:40:04;;;;;;;4.93;2.92;;;;;;;14.70;64.95;99150.59;5026898;28;20100;-75
2023/05/07 02:42:30;;;;;;;3.45;2.50;;;;;;;14.68;64.96;99149.88;5027085;28;20037;-75
2023/05/07 02:44:57;;;;;;;6.95;2.90;;;;;;;14.67;65.34;99145.50;5027330;28;20057;-75
2023/05/07 02:47:26;;;;;;;3.80;2.47;;;;;;;14.64;65.38;99155.53;5027034;28;20045;-75
2023/05/07 02:49:54;;;;;;;4.22;2.78;;;;;;;14.63;65.49;99156.50;5025839;28;20053;-75
2023/05/07 02:52:22;;;;;;;3.30;2.50;;;;;;;14.27;64.99;99088.06;5025859;28;20049;-74
2023/05/07 02:54:49;;;;;;;4.57;3.20;;;;;;;14.61;65.34;99155.78;5027160;28;20037;-75
2023/05/07 02:57:16;;;;;;;3.35;2.60;;;;;;;14.34;65.17;99115.94;5026304;28;20060;-74
2023/05/07 02:59:43;;;;;;;3.88;2.97;;;;;;;14.56;65.18;99150.72;5026759;28;20038;-76
2023/05/07 03:02:09;;;;;;;4.20;2.70;;;;;;;14.54;65.61;99152.66;5026773;28;20045;-75
2023/05/07 03:04:36;;;;;;;3.97;3.03;;;;;;;14.52;65.69;99161.72;5026498;28;20054;-75
2023/05/07 03:07:04;;;;;;;8.23;3.38;;;;;;;14.51;65.38;99160.03;5025550;28;20363;-75
2023/05/07 03:09:31;;;;;;;3.70;3.00;;;;;;;14.49;65.52;99165.47;5025541;28;20034;-75
2023/05/07 03:11:58;;;;;;;3.80;3.03;;;;;;;14.48;65.33;99165.59;5026572;28;20205;-75
2023/05/07 03:14:24;;;;;;;4.78;4.03;;;;;;;14.47;65.16;99164.72;5026262;28;20104;-75
2023/05/07 03:16:51;;;;;;;5.38;4.28;;;;;;;14.22;65.06;99130.19;5026261;28;20290;-75
2023/05/07 03:19:18;;;;;;;4.43;3.38;;;;;;;14.43;65.41;99177.44;5026394;28;20117;-76
2023/05/07 03:21:45;;;;;;;4.80;3.15;;;;;;;14.39;65.47;99178.63;5026444;28;20066;-76
2023/05/07 03:24:13;;;;;;;4.78;3.58;;;;;;;14.38;65.69;99184.06;5025381;28;20049;-75
2023/05/07 03:26:39;;;;;;;4.72;3.75;;;;;;;14.37;65.52;99179.72;5025518;28;20297;-76
2023/05/07 03:29:06;;;;;;;5.05;4.00;;;;;;;14.14;65.73;99146.75;5024782;28;20088;-76
2023/05/07 03:31:33;;;;;;;4.28;3.67;;;;;;;14.35;65.79;99185.16;5025862;28;20129;-76
2023/05/07 03:34:00;;;;;;;4.10;3.38;;;;;;;14.32;65.43;99184.53;5026242;28;20042;-75
2023/05/07 03:36:27;;;;;;;5.43;4.25;;;;;;;14.29;65.75;99185.59;5025881;28;20053;-76
2023/05/07 03:38:54;;;;;;;5.88;5.10;;;;;;;14.28;65.67;99183.91;5024978;28;20041;-76
2023/05/07 03:41:22;;;;;;;8.43;5.72;;;;;;;14.09;66.04;99163.06;5025018;28;20033;-76
2023/05/07 03:43:49;;;;;;;8.57;6.97;;;;;;;14.27;65.76;99198.19;5024984;28;20297;-76
2023/05/07 03:46:16;;;;;;;8.05;6.55;;;;;;;14.28;66.00;99193.72;5026066;28;20218;-76
2023/05/07 03:48:43;;;;;;;8.00;6.70;;;;;;;14.26;66.22;99196.50;5025184;28;20081;-76
2023/05/07 03:51:10;;;;;;;7.95;6.07;;;;;;;14.23;65.90;99204.72;5026001;28;20201;-76
2023/05/07 03:53:37;;;;;;;8.77;6.45;;;;;;;14.23;66.30;99199.38;5025965;28;20052;-76
2023/05/07 03:56:04;;;;;;;8.13;6.53;;;;;;;14.23;66.10;99199.38;5025125;28;20045;-76
2023/05/07 03:58:32;;;;;;;6.75;5.68;;;;;;;14.23;66.02;99198.53;5026116;28;20049;-76
2023/05/07 04:00:59;;;;;;;8.27;6.32;;;;;;;14.22;66.43;99210.16;5026171;28;20046;-76
2023/05/07 04:03:26;;;;;;;8.88;6.63;;;;;;;14.24;66.56;99202.91;5024740;28;20045;-76
2023/05/07 04:05:53;;;;;;;7.55;6.63;;;;;;;14.25;66.14;99210.78;5025812;28;20234;-76
2023/05/07 04:08:20;;;;;;;8.52;7.07;;;;;;;14.27;66.28;99211.53;5025853;28;20045;-76
2023/05/07 04:10:47;;;;;;;8.60;7.53;;;;;;;14.27;66.58;99208.84;5025515;28;20042;-76
2023/05/07 04:13:14;;;;;;;10.15;7.38;;;;;;;14.29;66.52;99209.59;5025800;28;20322;-76
2023/05/07 04:15:42;;;;;;;9.25;7.60;;;;;;;14.28;66.67;99213.22;5025393;28;20121;-76
2023/05/07 04:18:09;;;;;;;8.40;7.57;;;;;;;13.92;66.54;99150.13;5025983;28;20042;-76
2023/05/07 04:20:37;;;;;;;9.65;7.85;;;;;;;14.16;66.45;99197.25;5025674;28;20364;-76
2023/05/07 04:23:04;;;;;;;8.88;7.82;;;;;;;14.06;66.86;99181.09;5025491;28;20096;-76
2023/05/07 04:25:30;;;;;;;10.45;9.38;;;;;;;14.32;66.88;99222.69;5025693;28;20197;-76
2023/05/07 04:27:57;;;;;;;10.45;9.40;;;;;;;14.34;66.79;99222.59;5025410;28;20049;-76
2023/05/07 04:30:24;;;;;;;9.60;8.50;;;;;;;14.36;66.75;99226.00;5024578;28;20041;-76
2023/05/07 04:32:53;;;;;;;9.50;8.35;;;;;;;13.99;66.45;99182.50;5025141;28;20056;-76
2023/05/07 04:35:20;;;;;;;8.73;7.82;;;;;;;14.12;66.59;99200.16;5025587;28;20193;-76
2023/05/07 04:37:47;;;;;;;9.15;8.25;;;;;;;14.37;66.49;99241.88;5025844;28;20042;-76
2023/05/07 04:40:14;;;;;;;8.73;7.88;;;;;;;14.35;66.34;99249.13;5027784;28;20038;-76
2023/05/07 04:42:40;;;;;;;7.78;7.05;;;;;;;14.35;66.43;99249.13;5028262;28;20096;-76
2023/05/07 04:45:08;;;;;;;7.78;6.88;;;;;;;14.38;66.45;99258.72;5028203;28;20202;-76
2023/05/07 04:47:35;;;;;;;8.85;7.95;;;;;;;14.42;66.64;99255.72;5028924;28;20045;-76
2023/05/07 04:50:03;;;;;;;8.93;8.02;;;;;;;14.28;66.45;99229.22;5028954;28;20111;-76
2023/05/07 04:52:31;;;;;;;8.98;8.07;;;;;;;14.45;66.53;99260.84;5028729;28;20309;-76
2023/05/07 04:55:00;;;;;;;15.10;10.55;;;;;;;14.51;66.46;99264.88;5027958;28;20042;-76
2023/05/07 04:57:27;;;;;;;11.05;9.85;;;;;;;14.06;66.63;99175.75;5028795;28;20045;-76
2023/05/07 04:59:54;;;;;;;13.32;12.02;;;;;;;14.59;66.67;99264.34;5028639;28;20038;-76
2023/05/07 05:02:23;;;;;;;13.38;11.88;;;;;;;14.65;66.50;99263.94;5028849;28;20301;-76
2023/05/07 05:04:49;;;;;;;13.23;11.73;;;;;;;14.69;66.14;99268.94;5028953;28;20053;-76
2023/05/07 05:07:18;;;;;;;14.25;11.90;;;;;;;14.74;66.24;99263.25;5027777;28;20033;-76
2023/05/07 05:09:44;;;;;;;13.63;12.23;;;;;;;14.79;65.82;99262.91;5028038;28;20061;-76
2023/05/07 05:12:11;;;;;;;13.27;11.77;;;;;;;14.82;65.95;99266.22;5028556;28;20056;-76
2023/05/07 05:14:38;;;;;;;12.52;11.00;;;;;;;14.87;66.08;99269.38;5028759;28;20050;-76
2023/05/07 05:17:05;;;;;;;13.90;12.60;;;;;;;14.91;65.98;99265.53;5028662;28;20093;-76
2023/05/07 05:19:31;;;;;;;14.05;12.30;;;;;;;14.79;65.61;99245.09;5027945;28;20066;-76
2023/05/07 05:21:58;;;;;;;13.55;12.05;;;;;;;14.98;65.60;99277.44;5028607;28;20045;-76
2023/05/07 05:24:26;;;;;;;12.90;11.68;;;;;;;14.76;65.52;99231.97;5028336;28;20286;-76
2023/05/07 05:26:54;;;;;;;14.70;13.10;;;;;;;14.67;65.54;99235.34;5028276;28;20053;-76
2023/05/07 05:29:21;;;;;;;13.57;12.25;;;;;;;15.06;65.67;99284.88;5028203;28;20088;-76
2023/05/07 05:31:48;;;;;;;14.98;13.48;;;;;;;15.10;65.39;99291.69;5028169;28;20045;-76
2023/05/07 05:34:14;;;;;;;15.52;13.93;;;;;;;15.12;65.66;99294.25;5028669;28;20117;-76
2023/05/07 05:36:41;;;;;;;15.82;14.13;;;;;;;15.17;65.29;99292.09;5028363;28;20352;-76
2023/05/07 05:39:09;;;;;;;15.00;13.27;;;;;;;14.47;65.47;99178.06;5027986;28;20361;-76
2023/05/07 05:41:37;;;;;;;15.57;13.95;;;;;;;15.22;65.66;99298.78;5028547;28;20045;-76
2023/05/07 05:44:04;;;;;;;14.32;12.63;;;;;;;15.27;65.27;99298.44;5027184;28;20046;-76
2023/05/07 05:46:31;;;;;;;18.30;15.15;;;;;;;15.29;65.13;99297.34;5027895;28;20045;-76
2023/05/07 05:48:58;;;;;;;15.98;14.20;;;;;;;15.30;65.04;99304.41;5027873;28;20188;-76
2023/05/07 05:51:25;;;;;;;16.83;15.13;;;;;;;15.35;65.02;99296.03;5027135;28;20042;-76
2023/05/07 05:53:52;;;;;;;15.63;13.35;;;;;;;15.27;65.12;99277.06;5028046;28;20040;-75
2023/05/07 05:56:18;;;;;;;17.00;15.30;;;;;;;15.46;64.80;99303.25;5028210;28;20109;-76
2023/05/07 05:58:47;;;;;;;16.67;14.93;;;;;;;14.63;65.00;99159.19;5026751;28;20046;-76
2023/05/07 06:01:14;;;;;;;15.82;13.57;;;;;;;15.50;64.63;99302.03;5026782;28;20042;-76
2023/05/07 06:03:41;;;;;;;16.95;15.15;;;;;;;15.52;64.44;99295.59;5026695;28;20045;-76
2023/05/07 06:06:07;;;;;;;15.32;13.77;;;;;;;15.59;64.17;99312.03;5028044;28;20042;-76
2023/05/07 06:08:34;;;;;;;16.08;14.48;;;;;;;15.64;64.21;99308.03;5028046;28;20042;-76
2023/05/07 06:11:02;;;;;;;15.80;14.18;;;;;;;15.69;63.61;99308.56;5027982;28;20050;-76
2023/05/07 06:13:29;;;;;;;19.40;15.20;;;;;;;15.75;63.35;99309.06;5027088;28;20178;-76
2023/05/07 06:15:57;;;;;;;16.08;13.82;;;;;;;15.80;63.67;99306.88;5027608;28;20057;-76
2023/05/07 06:18:24;;;;;;;13.88;12.35;;;;;;;15.88;63.62;99309.81;5026712;28;20201;-76
2023/05/07 06:20:52;;;;;;;15.13;13.55;;;;;;;14.98;62.85;99160.03;5009911;28;20050;-76
2023/05/07 06:23:18;;;;;;;16.85;15.00;;;;;;;15.74;62.86;99284.16;5027163;28;20055;-76
2023/05/07 06:25:49;;;;;;;14.35;12.48;;;;;;;15.69;62.79;99276.50;5027108;28;20313;-76
2023/05/07 06:28:16;;;;;;;14.70;13.20;;;;;;;16.02;62.52;99330.97;5027106;28;20042;-76
2023/05/07 06:30:43;;;;;;;15.57;13.98;;;;;;;16.08;62.16;99329.63;5027301;28;20206;-76
2023/05/07 06:33:11;;;;;;;14.52;13.02;;;;;;;16.14;62.29;99331.84;5027287;28;20034;-76
2023/05/07 06:35:38;;;;;;;15.98;14.23;;;;;;;16.22;61.84;99327.59;5026884;28;20052;-76
2023/05/07 06:38:04;;;;;;;14.25;12.80;;;;;;;16.29;61.71;99326.13;5026746;28;20037;-76
2023/05/07 06:40:31;;;;;;;15.30;12.90;;;;;;;16.40;61.50;99321.75;5026837;28;20105;-76
2023/05/07 06:42:58;;;;;;;15.13;13.52;;;;;;;16.49;61.03;99323.69;5026844;28;20045;-76
2023/05/07 06:45:26;;;;;;;15.77;13.23;;;;;;;16.62;60.85;99329.75;5026677;28;20045;-76
2023/05/07 06:47:53;;;;;;;14.55;13.15;;;;;;;14.84;60.44;99013.50;5026968;28;20042;-76
2023/05/07 06:50:21;;;;;;;14.68;13.18;;;;;;;16.88;59.94;99325.00;5026946;28;20072;-76
2023/05/07 06:52:48;;;;;;;16.05;14.45;;;;;;;16.76;59.00;99294.75;5026932;28;20088;-76
2023/05/07 06:55:16;;;;;;;16.05;14.30;;;;;;;16.88;58.58;99325.00;5009587;28;20049;-76
2023/05/07 06:57:42;;;;;;;15.68;14.05;;;;;;;16.81;58.99;99335.34;5027099;28;20237;-76
2023/05/07 07:00:10;;;;;;;15.20;13.70;;;;;;;16.75;58.69;99335.00;5026451;28;20306;-76
2023/05/07 07:02:37;;;;;;;13.52;12.18;;;;;;;16.81;59.05;99342.53;5025466;28;20050;-76
2023/05/07 07:05:04;;;;;;;14.07;12.57;;;;;;;16.84;59.01;99340.47;5025585;28;20084;-76
2023/05/07 07:07:33;;;;;;;15.52;13.73;;;;;;;16.88;58.72;99341.06;5026660;28;20065;-76
2023/05/07 07:10:00;;;;;;;15.50;14.00;;;;;;;16.97;58.61;99343.84;5026855;28;20056;-76
2023/05/07 07:12:26;;;;;;;18.70;14.13;;;;;;;17.08;58.29;99345.63;5025284;28;20042;-76
2023/05/07 07:14:53;;;;;;;16.20;14.27;;;;;;;17.27;57.65;99345.00;5026215;28;20046;-76
2023/05/07 07:17:20;;;;;;;17.92;14.90;;;;;;;17.51;56.62;99348.31;5025325;28;20125;-76
2023/05/07 07:19:48;;;;;;;13.95;12.60;;;;;;;17.71;56.66;99348.50;5026039;28;20053;-76
2023/05/07 07:22:14;;;;;;;16.48;14.05;;;;;;;18.01;55.86;99348.56;5026688;28;20046;-76
2023/05/07 07:24:43;;;;;;;15.50;14.00;;;;;;;18.17;54.89;99316.75;5026632;28;20041;-76
2023/05/07 07:27:09;;;;;;;15.48;13.15;;;;;;;18.51;54.07;99338.78;5025142;28;20061;-76
2023/05/07 07:29:36;;;;;;;11.73;10.63;;;;;;;18.66;54.05;99342.00;5026323;28;20044;-76
2023/05/07 07:32:03;;;;;;;14.63;12.45;;;;;;;18.74;53.66;99346.69;5026184;28;20253;-76
2023/05/07 07:34:30;;;;;;;15.60;13.68;;;;;;;18.86;53.48;99349.13;5025963;28;20352;-76
2023/05/07 07:36:57;;;;;;;13.88;12.57;;;;;;;18.95;53.20;99350.13;5026069;28;20050;-76
2023/05/07 07:39:23;;;;;;;14.18;12.77;;;;;;;18.81;53.42;99355.88;5024940;28;20117;-76
2023/05/07 07:41:51;;;;;;;13.60;12.20;;;;;;;18.66;53.39;99357.25;5026103;28;20200;-76
2023/05/07 07:44:18;;;;;;;12.30;11.10;;;;;;;18.53;53.89;99365.53;5025784;28;20298;-76
2023/05/07 07:46:45;;;;;;;12.30;11.07;;;;;;;18.47;53.86;99366.88;5024961;28;20237;-76
2023/05/07 07:49:11;;;;;;;12.07;10.35;;;;;;;17.82;54.23;99260.81;5025713;28;20045;-76
2023/05/07 07:51:38;;;;;;;12.77;10.48;;;;;;;18.34;54.06;99365.41;5026215;28;20096;-76
2023/05/07 07:54:05;;;;;;;12.57;11.38;;;;;;;18.26;54.49;99372.28;5025678;28;20037;-76
2023/05/07 07:56:33;;;;;;;12.40;11.13;;;;;;;18.17;54.44;99366.88;5025710;28;20105;-76
2023/05/07 07:59:01;;;;;;;12.73;11.43;;;;;;;18.12;54.66;99363.72;5024665;28;20046;-76
2023/05/07 08:01:30;;;;;;;11.80;10.32;;;;;;;18.11;54.33;99364.72;5025813;28;20042;-76
2023/05/07 08:03:58;;;;;;;13.77;11.55;;;;;;;18.04;54.52;99367.06;5024777;28;20042;-76
2023/05/07 08:06:26;;;;;;;13.77;11.40;;;;;;;18.02;54.43;99370.88;5024747;28;20257;-76
2023/05/07 08:08:53;;;;;;;16.73;13.90;;;;;;;18.07;54.26;99372.16;5024996;28;20060;-76
2023/05/07 08:11:19;;;;;;;13.68;12.30;;;;;;;18.16;53.67;99365.16;5025620;28;20041;-76
2023/05/07 08:13:47;;;;;;;13.30;11.90;;;;;;;18.12;53.82;99364.59;5024791;28;20175;-76
2023/05/07 08:16:15;;;;;;;14.43;12.60;;;;;;;18.10;53.78;99371.91;5029740;28;20045;-76
2023/05/07 08:18:42;;;;;;;12.40;11.05;;;;;;;18.21;53.90;99371.84;5029380;28;20166;-76
2023/05/07 08:21:09;;;;;;;11.45;10.25;;;;;;;18.32;53.45;99380.78;5029088;28;20060;-76
2023/05/07 08:23:35;;;;;;;12.18;10.98;;;;;;;18.31;53.63;99382.63;5029429;28;20093;-76
2023/05/07 08:26:02;;;;;;;13.75;12.00;;;;;;;18.28;53.67;99374.84;5028205;28;20205;-76
2023/05/07 08:28:29;;;;;;;12.18;10.98;;;;;;;18.22;53.86;99381.59;5029094;28;20056;-76
2023/05/07 08:31:00;;;;;;;11.88;10.68;;;;;;;18.26;53.57;99376.81;5028169;28;20057;-76
2023/05/07 08:33:28;;;;;;;14.75;13.15;;;;;;;18.27;53.29;99374.00;5029107;28;20042;-76
2023/05/07 08:35:55;;;;;;;12.70;11.38;;;;;;;18.26;53.99;99372.28;5028890;28;20201;-76
2023/05/07 08:38:21;;;;;;;14.88;11.57;;;;;;;18.24;53.82;99371.56;5029056;28;20097;-76
2023/05/07 08:40:48;;;;;;;15.55;10.40;;;;;;;18.25;53.63;99370.59;5028086;28;20038;-76
2023/05/07 08:43:16;;;;;;;11.68;10.10;;;;;;;18.33;53.37;99371.75;5029019;28;20061;-76
2023/05/07 08:45:45;;;;;;;13.20;10.63;;;;;;;18.33;53.18;99369.06;5029556;28;20038;-76
2023/05/07 08:48:16;;;;;;;12.68;11.38;;;;;;;17.81;52.72;99287.75;5028345;28;20042;-76
2023/05/07 08:50:45;;;;;;;14.20;11.27;;;;;;;18.20;53.32;99350.50;5028125;28;20048;-76
2023/05/07 08:53:12;;;;;;;10.40;9.32;;;;;;;18.14;53.33;99343.00;5028010;28;20046;-76
2023/05/07 08:55:39;;;;;;;10.63;9.60;;;;;;;18.17;52.73;99354.31;5028038;28;20045;-76
2023/05/07 08:58:06;;;;;;;10.52;9.20;;;;;;;18.32;53.19;99372.75;5027913;28;20317;-76
2023/05/07 09:00:33;;;;;;;12.02;10.82;;;;;;;18.37;52.56;99371.34;5028017;28;20037;-76
2023/05/07 09:03:01;;;;;;;11.65;9.93;;;;;;;18.44;52.86;99360.94;5027852;28;20205;-76
2023/05/07 09:05:28;;;;;;;10.57;9.48;;;;;;;18.51;52.51;99365.63;5029077;28;20049;-76
2023/05/07 09:07:56;;;;;;;10.60;9.50;;;;;;;18.54;52.05;99367.22;5028821;28;20286;-76
2023/05/07 09:10:23;;;;;;;11.75;9.68;;;;;;;18.41;51.80;99335.22;5028884;28;20084;-76
2023/05/07 09:12:50;;;;;;;12.48;8.63;;;;;;;18.73;51.99;99370.00;5029023;28;20049;-76
2023/05/07 09:15:17;;;;;;;9.07;8.18;;;;;;;18.91;51.80;99376.41;5027504;28;20049;-76
2023/05/07 09:17:44;;;;;;;9.77;8.85;;;;;;;19.10;51.22;99366.69;5028267;28;20037;-75
2023/05/07 09:20:11;;;;;;;12.48;9.68;;;;;;;18.90;50.59;99331.75;5028130;28;20049;-75
2023/05/07 09:22:38;;;;;;;10.88;9.77;;;;;;;18.25;50.55;99225.72;5027963;28;20089;-75
2023/05/07 09:25:09;;;;;;;11.15;9.00;;;;;;;19.24;50.57;99366.28;5027731;28;20088;-76
2023/05/07 09:27:35;;;;;;;11.35;10.15;;;;;;;19.31;50.81;99359.38;5027503;28;20064;-76
2023/05/07 09:30:06;;;;;;;10.10;9.10;;;;;;;19.04;50.86;99302.78;5027209;28;20061;-76
2023/05/07 09:32:35;;;;;;;10.75;9.20;;;;;;;19.18;50.12;99318.50;5028005;28;20084;-76
2023/05/07 09:35:02;;;;;;;9.88;8.88;;;;;;;19.37;50.42;99357.97;5026866;28;20045;-76
2023/05/07 09:37:31;;;;;;;10.48;9.45;;;;;;;19.38;50.02;99347.06;5028222;28;20108;-76
2023/05/07 09:39:59;;;;;;;10.40;9.40;;;;;;;19.49;50.40;99355.03;5027971;28;20049;-76
2023/05/07 09:42:27;;;;;;;12.18;8.65;;;;;;;19.64;50.61;99346.53;5028269;28;20076;-75
2023/05/07 09:44:54;;;;;;;10.35;8.45;;;;;;;19.73;50.08;99351.06;5027712;28;20049;-76
2023/05/07 09:47:24;;;;;;;10.02;8.32;;;;;;;19.81;49.52;99348.53;5028265;28;20181;-76
2023/05/07 09:49:57;;;;;;;9.82;8.82;;;;;;;19.85;48.49;99352.66;5026890;28;20104;-76
2023/05/07 09:52:28;;;;;;;10.85;8.73;;;;;;;19.84;49.36;99354.47;5028005;28;20292;-76
2023/05/07 09:54:59;;;;;;;9.82;8.55;;;;;;;19.56;49.31;99304.25;5026532;28;20073;-76
2023/05/07 09:57:28;;;;;;;9.55;8.50;;;;;;;19.93;49.49;99354.63;5028031;28;20046;-76
2023/05/07 09:59:57;;;;;;;10.48;9.38;;;;;;;19.82;48.42;99317.97;5026572;28;20050;-75
2023/05/07 10:02:26;;;;;;;9.40;7.90;;;;;;;19.78;48.27;99316.53;5027249;28;20042;-76
2023/05/07 10:04:53;;;;;;;8.95;7.95;;;;;;;20.18;48.04;99360.22;5027544;28;20044;-76
2023/05/07 10:07:21;;;;;;;8.70;7.53;;;;;;;20.29;48.29;99351.16;5026635;28;20045;-76
2023/05/07 10:09:49;;;;;;;9.25;7.78;;;;;;;20.40;47.51;99344.75;5027560;28;20046;-76
2023/05/07 10:12:16;;;;;;;8.70;7.80;;;;;;;20.51;47.64;99347.25;5027344;28;20038;-76
2023/05/07 10:14:46;;;;;;;9.00;8.10;;;;;;;20.52;46.55;99319.34;5027396;28;20046;-76
2023/05/07 10:17:13;;;;;;;10.02;8.98;;;;;;;20.65;46.87;99341.38;5027887;28;20234;-76
2023/05/07 10:19:40;;;;;;;8.60;7.80;;;;;;;20.73;46.76;99338.81;5027301;28;20058;-76
2023/05/07 10:22:08;;;;;;;8.52;7.68;;;;;;;20.80;46.71;99331.81;5026240;28;20052;-76
2023/05/07 10:24:37;;;;;;;10.02;8.80;;;;;;;20.69;46.43;99305.09;5027675;28;20045;-75
2023/05/07 10:27:10;;;;;;;9.75;8.35;;;;;;;20.99;45.91;99330.00;5027607;28;20046;-76
2023/05/07 10:29:46;;;;;;;8.63;7.72;;;;;;;21.09;45.49;99334.38;5026020;28;20046;-76
2023/05/07 10:32:34;;;;;;;8.73;7.85;;;;;;;21.08;44.20;99331.81;5026943;28;20061;-76
2023/05/07 10:35:03;;;;;;;9.05;8.15;;;;;;;21.08;45.74;99334.50;5027222;28;20037;-76
2023/05/07 10:37:31;;;;;;;10.93;8.95;;;;;;;20.98;45.95;99337.25;5026582;28;20088;-76
2023/05/07 10:39:58;;;;;;;8.45;7.57;;;;;;;20.97;46.40;99345.47;5026981;28;20045;-76
2023/05/07 10:42:25;;;;;;;8.75;7.72;;;;;;;21.06;46.45;99333.81;5027165;28;20041;-75
2023/05/07 10:44:51;;;;;;;9.65;8.00;;;;;;;21.18;46.13;99337.16;5027085;28;20038;-76
2023/05/07 10:47:20;;;;;;;9.85;8.88;;;;;;;21.08;45.65;99316.50;5026666;28;20038;-76
2023/05/07 10:50:24;;;;;;;9.35;8.13;;;;;;;21.25;44.24;99341.78;5026885;28;20057;-76
2023/05/07 10:53:28;;;;;;;8.63;7.73;;;;;;;21.29;44.79;99340.47;5027154;28;20041;-76
2023/05/07 10:56:26;;;;;;;8.85;7.60;;;;;;;21.33;44.48;99339.16;5026571;28;20042;-77
2023/05/07 10:58:53;;;;;;;9.50;7.97;;;;;;;21.35;46.10;99342.53;5026828;28;20205;-77
2023/05/07 11:01:50;;;;;;;8.98;7.45;;;;;;;21.21;44.50;99317.97;5026915;28;20042;-76
2023/05/07 11:04:24;;;;;;;9.02;8.13;;;;;;;21.30;44.88;99336.78;5025650;28;20034;-76
2023/05/07 11:07:24;;;;;;;10.43;8.50;;;;;;;21.31;43.44;99330.38;5025586;28;20050;-77
2023/05/07 11:10:05;;;;;;;9.13;8.15;;;;;;;21.34;43.68;99348.09;5025503;28;20290;-76
2023/05/07 11:12:48;;;;;;;9.68;8.10;;;;;;;21.34;44.00;99342.69;5026301;28;20046;-74
2023/05/07 11:15:16;;;;;;;7.95;7.15;;;;;;;21.07;45.68;99295.09;5026194;28;20038;-75
2023/05/07 11:17:54;;;;;;;12.48;7.35;;;;;;;21.29;44.24;99312.66;5026675;28;20053;-75
2023/05/07 11:21:02;;;;;;;7.97;7.05;;;;;;;21.39;43.59;99319.69;5026139;28;20077;-75
2023/05/07 11:24:00;;;;;;;7.80;7.00;;;;;;;21.46;43.36;99309.97;5025204;28;20306;-75
2023/05/07 11:26:30;;;;;;;8.20;7.13;;;;;;;21.53;44.96;99314.75;5025227;28;20037;-75
2023/05/07 11:29:00;;;;;;;8.23;6.88;;;;;;;21.60;45.01;99308.56;5025291;28;20085;-75
2023/05/07 11:31:29;;;;;;;9.27;7.07;;;;;;;21.65;44.77;99322.44;5026492;28;20207;-75
2023/05/07 11:33:56;;;;;;;8.10;6.22;;;;;;;21.72;44.79;99317.25;5026105;28;20052;-73